»·PEaware :: SWA310 KSLC-KDEN

SWA310 :: KSLC-KDEN

FLIGHT INFORMATION

Flight Status: Arrived
Operator:
Southwest Airlines
More flights by this operator :: More flights under this callsign
Pilot: Maximilliano F. (23467)
Aircraft: BOEING 737-800
(B738)
More flights by this aircraft type
Origin: KSLC Salt Lake City Intl
United States
Destination: KDEN Denver Intl
United States
More flights between these airports :: More routes between these airports
Route: +RUGGD1 PERTY CHE KAILE2
File this flight plan on PilotEdge
Remarks: RMK / SIMBRIEF
Altitude:
(Current/Filed)
37,000ft
Speed:
(Current/Filed)
451kts
Departed: 12-Oct-19 07:48 PM
Arrived: 12-Oct-19 08:46 PM
Distance/Time
Traveled:
338nm/0:58
Distance/Time
To Go:
Arrived

Flight Plot

Page will automatically refresh every two minutes.

Flight plan parsing failed; only flown route is shown


Map Options




Map Legend


Flown Route
Filed Route
Departure Airport
Arrival Airport
Navaid (VOR, NDB)
Fix

Horizontal Profiles

Position Reports

Time Latitude Longitude Heading Altitude Ground
Speed
12-Oct-19 19:09 40.784909 -111.978979 360 4235ft 0kts
12-Oct-19 19:10 40.784909 -111.978979 360 4235ft 0kts
12-Oct-19 19:11 40.784909 -111.978979 360 4235ft 0kts
12-Oct-19 19:12 40.784909 -111.978979 360 4235ft 0kts
12-Oct-19 19:13 40.784909 -111.978979 360 4235ft 0kts
12-Oct-19 19:14 40.784909 -111.978979 360 4235ft 0kts
12-Oct-19 19:15 40.784909 -111.978979 360 4235ft 0kts
12-Oct-19 19:16 40.784909 -111.978979 360 4235ft 0kts
12-Oct-19 19:17 40.784909 -111.978979 360 4235ft 0kts
12-Oct-19 19:18 40.784909 -111.978979 360 4235ft 0kts
12-Oct-19 19:19 40.784909 -111.978979 360 4235ft 0kts
12-Oct-19 19:20 40.784909 -111.978979 360 4235ft 0kts
12-Oct-19 19:21 40.784909 -111.978979 360 4235ft 0kts
12-Oct-19 19:22 40.784909 -111.978979 360 4235ft 0kts
12-Oct-19 19:23 40.784909 -111.978979 360 4235ft 0kts
12-Oct-19 19:24 40.784909 -111.978979 360 4235ft 0kts
12-Oct-19 19:25 40.784909 -111.978979 360 4235ft 0kts
12-Oct-19 19:26 40.784909 -111.978979 360 4235ft 0kts
12-Oct-19 19:27 40.784909 -111.978979 360 4235ft 0kts
12-Oct-19 19:28 40.784909 -111.978979 360 4235ft 0kts
12-Oct-19 19:29 40.784909 -111.978979 360 4235ft 0kts
12-Oct-19 19:30 40.784909 -111.978979 360 4235ft 0kts
12-Oct-19 19:32 40.784909 -111.978979 0 4235ft 0kts
12-Oct-19 19:33 40.784766 -111.978954 346 4235ft 2kts
12-Oct-19 19:34 40.784169 -111.978835 351 4235ft 2kts
12-Oct-19 19:35 40.783772 -111.978759 0 4235ft 0kts
12-Oct-19 19:36 40.783772 -111.978759 0 4235ft 0kts
12-Oct-19 19:37 40.783772 -111.978759 0 4235ft 0kts
12-Oct-19 19:38 40.783782 -111.978759 0 4235ft 1kts
12-Oct-19 19:39 40.784070 -111.977608 84 4235ft 5kts
12-Oct-19 19:40 40.784108 -111.977099 84 4234ft 0kts
12-Oct-19 19:41 40.784479 -111.976480 9 4235ft 4kts
12-Oct-19 19:42 40.788202 -111.976874 355 4235ft 17kts
12-Oct-19 19:43 40.792634 -111.977390 355 4234ft 14kts
12-Oct-19 19:44 40.796715 -111.977866 354 4235ft 16kts
12-Oct-19 19:45 40.800756 -111.978338 354 4234ft 12kts
12-Oct-19 19:46 40.804064 -111.978246 354 4234ft 11kts
12-Oct-19 19:47 40.807190 -111.978452 32 4235ft 11kts
12-Oct-19 19:48 40.803409 -111.976477 174 4235ft 81kts
12-Oct-19 19:49 40.758121 -111.979776 222 5674ft 198kts
12-Oct-19 19:50 40.764322 -112.045665 303 7962ft 214kts
12-Oct-19 19:50 40.796198 -112.104290 314 9962ft 246kts
12-Oct-19 19:52 40.855431 -112.066311 84 12418ft 286kts
12-Oct-19 19:53 40.864928 -111.953621 80 14779ft 331kts
12-Oct-19 19:53 40.875811 -111.847501 81 16920ft 363kts
12-Oct-19 19:54 40.887290 -111.710879 82 19814ft 385kts
12-Oct-19 19:56 40.899570 -111.543780 82 23207ft 400kts
12-Oct-19 19:57 40.907694 -111.393832 91 25656ft 419kts
12-Oct-19 19:57 40.893744 -111.265013 98 27682ft 430kts
12-Oct-19 19:58 40.874901 -111.106637 97 29933ft 442kts
12-Oct-19 19:59 40.855408 -110.944046 97 32069ft 452kts
12-Oct-19 20:00 40.835540 -110.780358 97 34262ft 452kts
12-Oct-19 20:01 40.815432 -110.616706 97 36071ft 453kts
12-Oct-19 20:02 40.794856 -110.451187 98 37160ft 467kts
12-Oct-19 20:03 40.773596 -110.282205 98 37161ft 470kts
12-Oct-19 20:04 40.751944 -110.112171 98 37157ft 471kts
12-Oct-19 20:05 40.735495 -109.941217 93 37139ft 472kts
12-Oct-19 20:06 40.723444 -109.768558 94 37133ft 472kts
12-Oct-19 20:07 40.711030 -109.596073 94 37134ft 472kts
12-Oct-19 20:08 40.698432 -109.424531 94 37134ft 474kts
12-Oct-19 20:09 40.685542 -109.252236 94 37128ft 473kts
12-Oct-19 20:10 40.672361 -109.079814 94 37131ft 473kts
12-Oct-19 20:11 40.658923 -108.907565 94 37137ft 474kts
12-Oct-19 20:12 40.645195 -108.734826 94 37138ft 475kts
12-Oct-19 20:13 40.631159 -108.561613 94 37139ft 475kts
12-Oct-19 20:14 40.616866 -108.388506 94 37140ft 475kts
12-Oct-19 20:15 40.602621 -108.218622 95 37135ft 477kts
12-Oct-19 20:16 40.587775 -108.045150 95 37143ft 477kts
12-Oct-19 20:17 40.572614 -107.871112 95 37146ft 479kts
12-Oct-19 20:18 40.557234 -107.697619 95 37148ft 478kts
12-Oct-19 20:19 40.541557 -107.523785 95 37149ft 478kts
12-Oct-19 20:20 40.525673 -107.350614 95 37151ft 479kts
12-Oct-19 20:21 40.513278 -107.176091 92 37144ft 477kts
12-Oct-19 20:22 40.504141 -107.001662 92 37149ft 479kts
12-Oct-19 20:23 40.494587 -106.826719 92 36150ft 487kts
12-Oct-19 20:24 40.484763 -106.651910 91 33416ft 473kts
12-Oct-19 20:25 40.475000 -106.482451 91 30597ft 458kts
12-Oct-19 20:26 40.465372 -106.319738 92 28537ft 438kts
12-Oct-19 20:27 40.455379 -106.161774 92 26593ft 437kts
12-Oct-19 20:28 40.445872 -106.008665 93 24686ft 406kts
12-Oct-19 20:29 40.423513 -105.856247 100 22613ft 422kts
12-Oct-19 20:30 40.400635 -105.711092 99 20673ft 399kts
12-Oct-19 20:31 40.377809 -105.568122 100 18748ft 403kts
12-Oct-19 20:32 40.355583 -105.429215 99 17883ft 377kts
12-Oct-19 20:33 40.337763 -105.297676 99 16246ft 354kts
12-Oct-19 20:34 40.320999 -105.175572 99 14792ft 326kts
12-Oct-19 20:35 40.281268 -105.072138 128 12476ft 331kts
12-Oct-19 20:36 40.229708 -104.980993 127 11596ft 286kts
12-Oct-19 20:37 40.185367 -104.902297 127 10659ft 256kts
12-Oct-19 20:38 40.144080 -104.829535 127 9441ft 242kts
12-Oct-19 20:39 40.104897 -104.761224 127 8150ft 231kts
12-Oct-19 20:40 40.068222 -104.697465 127 8052ft 207kts
12-Oct-19 20:41 40.017915 -104.684559 184 7733ft 186kts
12-Oct-19 20:42 39.967040 -104.686002 181 6758ft 172kts
12-Oct-19 20:43 39.922122 -104.686515 181 5888ft 158kts
12-Oct-19 20:44 39.882613 -104.686965 181 5362ft 73kts
12-Oct-19 20:45 39.868213 -104.686705 101 5362ft 14kts

Navigation Log

Ident Type
Flight plan parsing failed, navigation log unavailable